Arletta, Washington
Current Conditions -  °F | °C
As of 12:53 AM on Thursday 18 Dec 2014 (Local Time) from KTIW Reporting Station
Light Rain Light Rain  
Wind Chill: 41°   Ceiling: 500
Heat Index: 45°   Visibility: 6mi
Dew Point: 43°   Wind: 7mph
Humidity: 93%   Direction: 170°S
Pressure: 29.93"   Gusts: NA
Location:  47.2986°N, 122.616°W
Report Text: KTIW 180853Z AUTO 17006KT 6SM -RA BR BKN005 OVC010 07/06 A2993 RMK AO2 CIG 002V006 SLP138 P0002 60006 T00720061 51002
Loading
Personal Weather Stations






























Interactive Weather Map New forecast layout! Learn more

10-Day Weather Forecast

Advertisements
Track Severe Weather on mobile